createdAt,value
2022-08-08T00:02:33.238Z,19.87
2022-08-08T00:07:44.853Z,19.60
2022-08-08T00:12:48.501Z,19.77
2022-08-08T00:18:04.319Z,19.54
2022-08-08T00:23:06.352Z,19.60
2022-08-08T00:28:34.369Z,19.45
2022-08-08T00:34:17.038Z,18.83
2022-08-08T00:38:55.728Z,18.89
2022-08-08T00:44:00.561Z,18.71
2022-08-08T00:49:02.381Z,18.44
2022-08-08T00:54:13.401Z,18.67
2022-08-08T00:59:18.642Z,18.84
2022-08-08T01:04:42.103Z,18.76
2022-08-08T01:09:43.659Z,18.62
2022-08-08T01:14:53.284Z,18.52
2022-08-08T01:20:03.166Z,18.61
2022-08-08T01:25:05.082Z,18.24
2022-08-08T01:30:09.605Z,18.13
2022-08-08T01:35:12.409Z,17.93
2022-08-08T01:40:14.662Z,18.08
2022-08-08T01:45:16.256Z,18.20
2022-08-08T01:50:20.868Z,18.23
2022-08-08T01:56:26.862Z,18.13
2022-08-08T02:00:50.053Z,17.99
2022-08-08T02:05:59.364Z,17.93
2022-08-08T02:11:00.796Z,17.54
2022-08-08T02:16:02.240Z,17.74
2022-08-08T02:21:24.014Z,17.28
2022-08-08T02:26:25.847Z,17.62
2022-08-08T02:31:43.527Z,17.68
2022-08-08T02:36:48.471Z,17.63
2022-08-08T02:41:58.921Z,17.70
2022-08-08T02:47:04.534Z,17.34
2022-08-08T02:52:32.809Z,16.85
2022-08-08T02:57:29.296Z,17.03
2022-08-08T03:02:42.230Z,17.20
2022-08-08T03:07:58.126Z,17.26
2022-08-08T03:13:02.659Z,17.22
2022-08-08T03:18:08.868Z,17.06
2022-08-08T03:23:10.134Z,16.97
2022-08-08T03:28:20.774Z,16.70
2022-08-08T03:33:55.039Z,16.66
2022-08-08T03:38:54.931Z,16.78
2022-08-08T03:44:00.717Z,16.48
2022-08-08T03:49:54.934Z,16.63
2022-08-08T03:54:41.590Z,16.72
2022-08-08T04:00:02.723Z,16.68
2022-08-08T04:05:10.408Z,16.57
2022-08-08T04:10:11.757Z,16.64
2022-08-08T04:15:13.914Z,16.57
2022-08-08T04:20:17.554Z,16.62
2022-08-08T04:25:20.493Z,16.53
2022-08-08T04:30:21.856Z,16.54
2022-08-08T04:35:24.413Z,16.63
2022-08-08T04:40:25.825Z,16.50
2022-08-08T04:45:27.242Z,16.45
2022-08-08T04:50:34.280Z,16.49
2022-08-08T04:55:47.589Z,16.47
2022-08-08T05:00:57.708Z,16.75
2022-08-08T05:05:59.535Z,16.91
2022-08-08T05:11:02.618Z,16.87
2022-08-08T05:16:51.869Z,16.92
2022-08-08T05:21:25.426Z,16.76
2022-08-08T05:26:29.094Z,16.91
2022-08-08T05:32:04.075Z,16.92
2022-08-08T05:36:51.807Z,17.08
2022-08-08T05:41:55.393Z,16.71
2022-08-08T05:47:03.084Z,17.54
2022-08-08T05:52:04.756Z,18.61
2022-08-08T05:57:06.916Z,18.94
2022-08-08T06:02:28.152Z,19.08
2022-08-08T06:07:31.772Z,18.37
2022-08-08T06:12:36.802Z,19.63
2022-08-08T06:18:18.758Z,19.75
2022-08-08T06:22:59.662Z,19.31
2022-08-08T06:28:03.680Z,19.69
2022-08-08T06:33:05.091Z,19.44
2022-08-08T06:38:14.550Z,18.58
2022-08-08T06:43:16.316Z,19.21
2022-08-08T06:48:19.524Z,19.57
2022-08-08T06:53:22.982Z,19.20
2022-08-08T06:58:30.334Z,19.56
2022-08-08T07:03:52.323Z,19.84
2022-08-08T07:08:54.602Z,20.22
2022-08-08T07:14:01.112Z,20.50
2022-08-08T07:19:06.453Z,20.90
2022-08-08T07:24:09.782Z,20.28
2022-08-08T07:29:11.568Z,20.54
2022-08-08T07:34:31.331Z,21.01
2022-08-08T07:39:45.659Z,21.49
2022-08-08T07:44:55.102Z,22.10
2022-08-08T07:49:57.526Z,21.52
2022-08-08T07:55:00.008Z,20.91
2022-08-08T08:00:01.683Z,20.96
2022-08-08T08:05:04.281Z,21.69
2022-08-08T08:10:16.050Z,22.00
2022-08-08T08:15:17.514Z,22.87
2022-08-08T08:20:19.268Z,22.89
2022-08-08T08:25:42.367Z,22.77
2022-08-08T08:30:43.426Z,23.46
2022-08-08T08:36:19.954Z,23.63
2022-08-08T08:41:13.198Z,24.21
2022-08-08T08:46:19.314Z,24.54
2022-08-08T08:51:27.229Z,24.76
2022-08-08T08:56:29.447Z,24.78
2022-08-08T09:01:32.012Z,24.97
2022-08-08T09:06:34.630Z,25.11
2022-08-08T09:11:47.368Z,25.39
2022-08-08T09:16:53.401Z,24.80
2022-08-08T09:22:05.824Z,24.71
2022-08-08T09:27:19.995Z,25.20
2022-08-08T09:32:22.344Z,25.64
2022-08-08T09:37:57.584Z,26.46
2022-08-08T09:42:51.101Z,26.52
2022-08-08T09:48:09.508Z,26.34
2022-08-08T09:53:24.838Z,26.21
2022-08-08T09:58:40.286Z,25.76
2022-08-08T10:03:43.161Z,25.76
2022-08-08T10:08:45.797Z,26.34
2022-08-08T10:13:47.982Z,26.38
2022-08-08T10:18:58.853Z,26.63
2022-08-08T10:24:00.187Z,26.52
2022-08-08T10:29:02.573Z,26.52
2022-08-08T10:34:18.984Z,27.24
2022-08-08T10:39:23.180Z,27.21
2022-08-08T10:44:24.701Z,26.69
2022-08-08T10:50:01.418Z,26.02
2022-08-08T10:54:49.455Z,25.04
2022-08-08T10:59:51.076Z,25.41
2022-08-08T11:04:54.101Z,25.26
2022-08-08T11:09:55.607Z,24.55
2022-08-08T11:14:57.068Z,24.69
2022-08-08T11:19:58.507Z,25.54
2022-08-08T11:24:59.767Z,25.76
2022-08-08T11:30:19.603Z,26.04
2022-08-08T11:35:27.786Z,26.26
2022-08-08T11:40:39.963Z,26.89
2022-08-08T11:46:06.970Z,27.72
2022-08-08T11:51:30.350Z,28.51
2022-08-08T11:56:25.050Z,27.76
2022-08-08T12:01:26.543Z,27.60
2022-08-08T12:06:31.985Z,27.58
2022-08-08T12:11:33.466Z,27.30
2022-08-08T12:16:47.210Z,27.59
2022-08-08T12:21:59.466Z,27.92
2022-08-08T12:27:07.057Z,28.54
2022-08-08T12:32:09.794Z,29.65
2022-08-08T12:37:18.737Z,29.88
2022-08-08T12:42:21.584Z,30.50
2022-08-08T12:47:33.329Z,30.80
2022-08-08T12:52:44.090Z,31.23
2022-08-08T12:57:49.928Z,31.44
2022-08-08T13:02:58.281Z,31.92
2022-08-08T13:08:05.200Z,30.71
2022-08-08T13:13:08.001Z,30.82
2022-08-08T13:18:13.485Z,31.30
2022-08-08T13:23:30.610Z,31.50
2022-08-08T13:28:37.577Z,31.51
2022-08-08T13:33:43.858Z,32.24
2022-08-08T13:38:45.106Z,32.88
2022-08-08T13:43:47.243Z,32.83
2022-08-08T13:49:11.981Z,32.79
2022-08-08T13:54:09.790Z,32.34
2022-08-08T13:59:18.959Z,32.49
2022-08-08T14:04:20.481Z,32.58
2022-08-08T14:09:29.169Z,32.57
2022-08-08T14:14:31.614Z,32.65
2022-08-08T14:19:58.058Z,32.59
2022-08-08T14:24:56.291Z,31.94
2022-08-08T14:30:01.225Z,32.61
2022-08-08T14:35:04.588Z,32.68
2022-08-08T14:40:07.143Z,32.73
2022-08-08T14:45:09.993Z,33.04
2022-08-08T14:50:22.506Z,32.66
2022-08-08T14:55:41.732Z,33.14
2022-08-08T15:00:44.237Z,33.14
2022-08-08T15:05:53.337Z,33.37
2022-08-08T15:10:57.223Z,34.35
2022-08-08T15:16:03.288Z,33.45
2022-08-08T15:21:05.019Z,33.58
2022-08-08T15:26:12.592Z,33.47
2022-08-08T15:31:25.947Z,33.37
2022-08-08T15:36:35.742Z,34.22
2022-08-08T15:41:44.009Z,34.31
2022-08-08T15:46:50.569Z,33.84
2022-08-08T15:51:54.610Z,33.32
2022-08-08T15:56:56.231Z,33.45
2022-08-08T16:02:00.379Z,33.40
2022-08-08T16:07:02.359Z,33.06
2022-08-08T16:13:05.742Z,32.88
2022-08-08T16:17:57.455Z,33.41
2022-08-08T16:22:46.200Z,33.15
2022-08-08T16:27:57.003Z,32.82
2022-08-08T16:32:59.581Z,32.59
2022-08-08T16:38:02.864Z,32.38
2022-08-08T16:43:05.556Z,32.37
2022-08-08T16:48:06.793Z,32.46
2022-08-08T16:55:02.363Z,32.68
2022-08-08T16:58:34.453Z,32.34
2022-08-08T17:03:59.858Z,32.90
2022-08-08T17:08:57.408Z,33.11
2022-08-08T17:14:00.764Z,32.91
2022-08-08T17:19:03.080Z,33.01
2022-08-08T17:24:10.697Z,33.04
2022-08-08T17:29:25.583Z,32.56
2022-08-08T17:34:35.564Z,32.20
2022-08-08T17:40:03.953Z,32.07
2022-08-08T17:45:00.960Z,31.67
2022-08-08T17:50:03.035Z,31.93
2022-08-08T17:55:05.117Z,31.62
2022-08-08T18:00:13.371Z,30.92
2022-08-08T18:05:23.071Z,30.42
2022-08-08T18:10:31.109Z,29.74
2022-08-08T18:15:33.300Z,29.41
2022-08-08T18:20:36.736Z,28.90
2022-08-08T18:25:45.727Z,28.64
2022-08-08T18:30:47.085Z,28.55
2022-08-08T18:35:50.018Z,28.48
2022-08-08T18:40:51.846Z,28.24
2022-08-08T18:46:52.856Z,27.90
2022-08-08T18:51:48.620Z,27.67
2022-08-08T18:56:43.217Z,27.35
2022-08-08T19:02:25.310Z,26.95
2022-08-08T19:07:06.190Z,26.58
2022-08-08T19:12:12.771Z,26.28
2022-08-08T19:17:29.415Z,26.03
2022-08-08T19:22:38.399Z,25.64
2022-08-08T19:27:56.055Z,25.33
2022-08-08T19:33:00.751Z,25.48
2022-08-08T19:38:02.283Z,25.07
2022-08-08T19:43:04.614Z,25.14
2022-08-08T19:48:28.747Z,24.96
2022-08-08T19:53:51.378Z,24.79
2022-08-08T19:58:54.590Z,24.45
2022-08-08T20:04:02.090Z,23.90
2022-08-08T20:09:08.654Z,24.20
2022-08-08T20:14:34.654Z,23.86
2022-08-08T20:19:33.430Z,23.85
2022-08-08T20:24:36.246Z,23.69
2022-08-08T20:30:00.990Z,23.22
2022-08-08T20:35:02.768Z,22.93
2022-08-08T20:40:04.106Z,23.39
2022-08-08T20:45:05.385Z,23.13
2022-08-08T20:50:10.281Z,22.95
2022-08-08T20:55:22.348Z,22.70
2022-08-08T21:00:27.203Z,22.56
2022-08-08T21:05:31.953Z,22.89
2022-08-08T21:10:33.388Z,22.55
2022-08-08T21:16:05.970Z,22.44
2022-08-08T21:21:00.711Z,22.30
2022-08-08T21:26:04.348Z,22.01
2022-08-08T21:31:22.005Z,22.24
2022-08-08T21:36:28.287Z,21.37
2022-08-08T21:41:51.092Z,21.75
2022-08-08T21:48:05.838Z,21.65
2022-08-08T21:54:33.838Z,21.58
2022-08-08T21:57:42.985Z,21.62
2022-08-08T22:02:56.246Z,21.39
2022-08-08T22:08:00.266Z,21.29
2022-08-08T22:13:18.457Z,21.12
2022-08-08T22:18:20.789Z,21.05
2022-08-08T22:23:25.267Z,21.26
2022-08-08T22:29:13.521Z,21.14
2022-08-08T22:34:13.331Z,21.20
2022-08-08T22:39:19.438Z,21.18
2022-08-08T22:44:21.990Z,20.71
2022-08-08T22:49:25.238Z,20.74
2022-08-08T22:54:39.206Z,20.67
2022-08-08T22:59:59.844Z,20.57
2022-08-08T23:05:02.197Z,20.48
2022-08-08T23:10:06.575Z,20.42
2022-08-08T23:16:36.709Z,20.10
2022-08-08T23:20:30.882Z,20.11
2022-08-08T23:25:32.123Z,20.19
2022-08-08T23:30:46.897Z,20.10
2022-08-08T23:36:07.502Z,20.12
2022-08-08T23:41:17.539Z,19.91
2022-08-08T23:49:02.104Z,19.72
2022-08-08T23:52:04.516Z,19.54
2022-08-08T23:57:25.655Z,19.80
